sensor_id;sensor_type;location;lat;lon;timestamp;P1;durP1;ratioP1;P2;durP2;ratioP2
13218;SDS011;6674;49.152;11.918;2024-02-14T00:02:12;4.60;;;2.87;;
13218;SDS011;6674;49.152;11.918;2024-02-14T00:04:38;2.80;;;2.60;;
13218;SDS011;6674;49.152;11.918;2024-02-14T00:07:06;2.77;;;2.40;;
13218;SDS011;6674;49.152;11.918;2024-02-14T00:09:32;3.00;;;2.47;;
13218;SDS011;6674;49.152;11.918;2024-02-14T00:11:59;2.33;;;2.13;;
13218;SDS011;6674;49.152;11.918;2024-02-14T00:14:25;2.97;;;2.50;;
13218;SDS011;6674;49.152;11.918;2024-02-14T00:16:51;3.03;;;2.37;;
13218;SDS011;6674;49.152;11.918;2024-02-14T00:19:18;2.03;;;1.80;;
13218;SDS011;6674;49.152;11.918;2024-02-14T00:21:45;2.40;;;2.20;;
13218;SDS011;6674;49.152;11.918;2024-02-14T00:24:13;3.90;;;2.57;;
13218;SDS011;6674;49.152;11.918;2024-02-14T00:26:42;3.73;;;2.87;;
13218;SDS011;6674;49.152;11.918;2024-02-14T00:29:08;2.80;;;2.50;;
13218;SDS011;6674;49.152;11.918;2024-02-14T00:31:35;3.50;;;2.70;;
13218;SDS011;6674;49.152;11.918;2024-02-14T00:34:01;3.17;;;2.17;;
13218;SDS011;6674;49.152;11.918;2024-02-14T00:36:28;2.87;;;2.43;;
13218;SDS011;6674;49.152;11.918;2024-02-14T00:38:54;2.40;;;2.20;;
13218;SDS011;6674;49.152;11.918;2024-02-14T00:41:22;2.10;;;1.90;;
13218;SDS011;6674;49.152;11.918;2024-02-14T00:43:49;2.57;;;2.37;;
13218;SDS011;6674;49.152;11.918;2024-02-14T00:46:16;2.27;;;2.07;;
13218;SDS011;6674;49.152;11.918;2024-02-14T00:48:43;3.77;;;2.30;;
13218;SDS011;6674;49.152;11.918;2024-02-14T00:51:09;3.00;;;2.40;;
13218;SDS011;6674;49.152;11.918;2024-02-14T00:53:36;2.80;;;2.50;;
13218;SDS011;6674;49.152;11.918;2024-02-14T00:56:02;2.60;;;2.40;;
13218;SDS011;6674;49.152;11.918;2024-02-14T00:58:30;2.60;;;2.40;;
13218;SDS011;6674;49.152;11.918;2024-02-14T01:00:57;2.70;;;2.50;;
13218;SDS011;6674;49.152;11.918;2024-02-14T01:03:24;2.83;;;2.63;;
13218;SDS011;6674;49.152;11.918;2024-02-14T01:05:51;2.80;;;2.40;;
13218;SDS011;6674;49.152;11.918;2024-02-14T01:08:17;2.60;;;2.40;;
13218;SDS011;6674;49.152;11.918;2024-02-14T01:10:44;2.50;;;2.30;;
13218;SDS011;6674;49.152;11.918;2024-02-14T01:13:11;2.60;;;2.40;;
13218;SDS011;6674;49.152;11.918;2024-02-14T01:15:39;2.67;;;2.47;;
13218;SDS011;6674;49.152;11.918;2024-02-14T01:18:06;3.20;;;2.43;;
13218;SDS011;6674;49.152;11.918;2024-02-14T01:20:34;2.67;;;2.43;;
13218;SDS011;6674;49.152;11.918;2024-02-14T01:23:00;2.50;;;2.20;;
13218;SDS011;6674;49.152;11.918;2024-02-14T01:25:27;2.93;;;2.47;;
13218;SDS011;6674;49.152;11.918;2024-02-14T01:27:53;3.03;;;2.67;;
13218;SDS011;6674;49.152;11.918;2024-02-14T01:30:19;2.50;;;2.30;;
13218;SDS011;6674;49.152;11.918;2024-02-14T01:32:47;3.10;;;2.40;;
13218;SDS011;6674;49.152;11.918;2024-02-14T01:35:14;2.13;;;1.93;;
13218;SDS011;6674;49.152;11.918;2024-02-14T01:37:40;2.37;;;2.20;;
13218;SDS011;6674;49.152;11.918;2024-02-14T01:40:09;2.97;;;2.57;;
13218;SDS011;6674;49.152;11.918;2024-02-14T01:42:38;3.37;;;2.60;;
13218;SDS011;6674;49.152;11.918;2024-02-14T01:45:05;4.40;;;3.13;;
13218;SDS011;6674;49.152;11.918;2024-02-14T01:47:31;4.07;;;3.57;;
13218;SDS011;6674;49.152;11.918;2024-02-14T01:49:59;4.93;;;4.20;;
13218;SDS011;6674;49.152;11.918;2024-02-14T01:52:26;6.33;;;5.07;;
13218;SDS011;6674;49.152;11.918;2024-02-14T01:54:52;5.80;;;5.03;;
13218;SDS011;6674;49.152;11.918;2024-02-14T01:57:20;7.20;;;5.47;;
13218;SDS011;6674;49.152;11.918;2024-02-14T01:59:46;8.67;;;6.07;;
13218;SDS011;6674;49.152;11.918;2024-02-14T02:02:13;5.80;;;5.27;;
13218;SDS011;6674;49.152;11.918;2024-02-14T02:04:41;6.77;;;6.00;;
13218;SDS011;6674;49.152;11.918;2024-02-14T02:07:09;6.20;;;5.60;;
13218;SDS011;6674;49.152;11.918;2024-02-14T02:09:35;6.40;;;5.80;;
13218;SDS011;6674;49.152;11.918;2024-02-14T02:12:02;7.53;;;6.37;;
13218;SDS011;6674;49.152;11.918;2024-02-14T02:14:31;7.00;;;6.30;;
13218;SDS011;6674;49.152;11.918;2024-02-14T02:16:58;7.77;;;6.37;;
13218;SDS011;6674;49.152;11.918;2024-02-14T02:19:25;6.40;;;5.80;;
13218;SDS011;6674;49.152;11.918;2024-02-14T02:21:51;10.37;;;7.30;;
13218;SDS011;6674;49.152;11.918;2024-02-14T02:24:18;7.80;;;6.43;;
13218;SDS011;6674;49.152;11.918;2024-02-14T02:26:45;7.20;;;6.50;;
13218;SDS011;6674;49.152;11.918;2024-02-14T02:29:12;7.27;;;6.57;;
13218;SDS011;6674;49.152;11.918;2024-02-14T02:31:41;7.43;;;6.60;;
13218;SDS011;6674;49.152;11.918;2024-02-14T02:34:08;8.53;;;7.43;;
13218;SDS011;6674;49.152;11.918;2024-02-14T02:36:35;7.10;;;6.50;;
13218;SDS011;6674;49.152;11.918;2024-02-14T02:39:03;7.23;;;6.53;;
13218;SDS011;6674;49.152;11.918;2024-02-14T02:41:31;7.83;;;7.13;;
13218;SDS011;6674;49.152;11.918;2024-02-14T02:43:58;8.10;;;7.27;;
13218;SDS011;6674;49.152;11.918;2024-02-14T02:46:25;9.30;;;8.33;;
13218;SDS011;6674;49.152;11.918;2024-02-14T02:48:51;8.10;;;7.40;;
13218;SDS011;6674;49.152;11.918;2024-02-14T02:51:19;8.67;;;7.60;;
13218;SDS011;6674;49.152;11.918;2024-02-14T02:53:47;9.10;;;8.00;;
13218;SDS011;6674;49.152;11.918;2024-02-14T02:56:13;10.43;;;9.33;;
13218;SDS011;6674;49.152;11.918;2024-02-14T02:58:41;11.57;;;9.23;;
13218;SDS011;6674;49.152;11.918;2024-02-14T03:01:09;8.23;;;7.30;;
13218;SDS011;6674;49.152;11.918;2024-02-14T03:03:37;11.47;;;10.00;;
13218;SDS011;6674;49.152;11.918;2024-02-14T03:06:04;10.33;;;9.17;;
13218;SDS011;6674;49.152;11.918;2024-02-14T03:08:30;9.77;;;8.77;;
13218;SDS011;6674;49.152;11.918;2024-02-14T03:11:01;11.10;;;9.90;;
13218;SDS011;6674;49.152;11.918;2024-02-14T03:13:28;10.27;;;9.27;;
13218;SDS011;6674;49.152;11.918;2024-02-14T03:15:56;10.73;;;9.67;;
13218;SDS011;6674;49.152;11.918;2024-02-14T03:18:23;11.77;;;10.57;;
13218;SDS011;6674;49.152;11.918;2024-02-14T03:20:50;11.33;;;9.80;;
13218;SDS011;6674;49.152;11.918;2024-02-14T03:23:18;11.70;;;10.47;;
13218;SDS011;6674;49.152;11.918;2024-02-14T03:25:45;10.87;;;9.77;;
13218;SDS011;6674;49.152;11.918;2024-02-14T03:28:11;12.47;;;11.27;;
13218;SDS011;6674;49.152;11.918;2024-02-14T03:30:38;11.17;;;10.10;;
13218;SDS011;6674;49.152;11.918;2024-02-14T03:33:06;13.17;;;11.87;;
13218;SDS011;6674;49.152;11.918;2024-02-14T03:35:33;14.87;;;12.60;;
13218;SDS011;6674;49.152;11.918;2024-02-14T03:37:59;12.83;;;11.53;;
13218;SDS011;6674;49.152;11.918;2024-02-14T03:40:26;12.60;;;11.33;;
13218;SDS011;6674;49.152;11.918;2024-02-14T03:42:56;12.80;;;11.33;;
13218;SDS011;6674;49.152;11.918;2024-02-14T03:45:22;12.33;;;11.07;;
13218;SDS011;6674;49.152;11.918;2024-02-14T03:47:49;15.57;;;13.90;;
13218;SDS011;6674;49.152;11.918;2024-02-14T03:50:17;15.93;;;13.53;;
13218;SDS011;6674;49.152;11.918;2024-02-14T03:52:43;13.73;;;12.37;;
13218;SDS011;6674;49.152;11.918;2024-02-14T03:55:10;25.17;;;17.37;;
13218;SDS011;6674;49.152;11.918;2024-02-14T03:57:38;20.47;;;15.40;;
13218;SDS011;6674;49.152;11.918;2024-02-14T04:00:05;16.50;;;13.80;;
13218;SDS011;6674;49.152;11.918;2024-02-14T04:02:33;21.30;;;14.60;;
13218;SDS011;6674;49.152;11.918;2024-02-14T04:05:00;15.77;;;14.17;;
13218;SDS011;6674;49.152;11.918;2024-02-14T04:07:28;19.53;;;15.03;;
13218;SDS011;6674;49.152;11.918;2024-02-14T04:09:55;17.50;;;13.77;;
13218;SDS011;6674;49.152;11.918;2024-02-14T04:12:22;13.93;;;12.53;;
13218;SDS011;6674;49.152;11.918;2024-02-14T04:14:48;15.23;;;13.77;;
13218;SDS011;6674;49.152;11.918;2024-02-14T04:17:15;13.53;;;12.20;;
13218;SDS011;6674;49.152;11.918;2024-02-14T04:19:41;17.13;;;14.80;;
13218;SDS011;6674;49.152;11.918;2024-02-14T04:22:08;12.80;;;11.50;;
13218;SDS011;6674;49.152;11.918;2024-02-14T04:24:35;17.07;;;13.73;;
13218;SDS011;6674;49.152;11.918;2024-02-14T04:27:02;15.07;;;13.50;;
13218;SDS011;6674;49.152;11.918;2024-02-14T04:29:29;16.67;;;13.63;;
13218;SDS011;6674;49.152;11.918;2024-02-14T04:31:57;15.67;;;12.60;;
13218;SDS011;6674;49.152;11.918;2024-02-14T04:34:24;15.60;;;14.00;;
13218;SDS011;6674;49.152;11.918;2024-02-14T04:36:50;14.77;;;13.20;;
13218;SDS011;6674;49.152;11.918;2024-02-14T04:39:17;16.17;;;14.50;;
13218;SDS011;6674;49.152;11.918;2024-02-14T04:41:45;14.60;;;13.20;;
13218;SDS011;6674;49.152;11.918;2024-02-14T04:44:12;14.70;;;12.67;;
13218;SDS011;6674;49.152;11.918;2024-02-14T04:46:38;15.47;;;13.70;;
13218;SDS011;6674;49.152;11.918;2024-02-14T04:49:08;12.93;;;10.60;;
13218;SDS011;6674;49.152;11.918;2024-02-14T04:51:36;12.70;;;11.43;;
13218;SDS011;6674;49.152;11.918;2024-02-14T04:54:03;12.83;;;11.50;;
13218;SDS011;6674;49.152;11.918;2024-02-14T04:56:30;15.07;;;11.43;;
13218;SDS011;6674;49.152;11.918;2024-02-14T04:58:58;12.13;;;10.47;;
13218;SDS011;6674;49.152;11.918;2024-02-14T05:01:25;12.33;;;11.13;;
13218;SDS011;6674;49.152;11.918;2024-02-14T05:03:51;13.00;;;10.33;;
13218;SDS011;6674;49.152;11.918;2024-02-14T05:06:18;11.63;;;10.40;;
13218;SDS011;6674;49.152;11.918;2024-02-14T05:08:44;9.80;;;8.90;;
13218;SDS011;6674;49.152;11.918;2024-02-14T05:11:11;12.90;;;11.10;;
13218;SDS011;6674;49.152;11.918;2024-02-14T05:13:38;11.90;;;10.70;;
13218;SDS011;6674;49.152;11.918;2024-02-14T05:16:08;11.67;;;10.40;;
13218;SDS011;6674;49.152;11.918;2024-02-14T05:18:35;12.07;;;10.73;;
13218;SDS011;6674;49.152;11.918;2024-02-14T05:21:04;9.87;;;8.93;;
13218;SDS011;6674;49.152;11.918;2024-02-14T05:23:30;11.27;;;10.00;;
13218;SDS011;6674;49.152;11.918;2024-02-14T05:25:57;11.67;;;10.47;;
13218;SDS011;6674;49.152;11.918;2024-02-14T05:28:23;11.20;;;9.53;;
13218;SDS011;6674;49.152;11.918;2024-02-14T05:30:49;11.07;;;9.90;;
13218;SDS011;6674;49.152;11.918;2024-02-14T05:33:17;12.00;;;10.77;;
13218;SDS011;6674;49.152;11.918;2024-02-14T05:35:47;13.67;;;10.33;;
13218;SDS011;6674;49.152;11.918;2024-02-14T05:38:13;10.83;;;9.73;;
13218;SDS011;6674;49.152;11.918;2024-02-14T05:40:39;12.37;;;10.53;;
13218;SDS011;6674;49.152;11.918;2024-02-14T05:43:08;11.17;;;8.77;;
13218;SDS011;6674;49.152;11.918;2024-02-14T05:45:35;11.40;;;9.90;;
13218;SDS011;6674;49.152;11.918;2024-02-14T05:48:01;10.87;;;9.60;;
13218;SDS011;6674;49.152;11.918;2024-02-14T05:50:29;12.00;;;9.10;;
13218;SDS011;6674;49.152;11.918;2024-02-14T05:52:56;11.37;;;10.20;;
13218;SDS011;6674;49.152;11.918;2024-02-14T05:55:23;10.50;;;9.23;;
13218;SDS011;6674;49.152;11.918;2024-02-14T05:57:49;10.47;;;9.47;;
13218;SDS011;6674;49.152;11.918;2024-02-14T06:00:17;11.67;;;9.40;;
13218;SDS011;6674;49.152;11.918;2024-02-14T06:02:43;9.67;;;8.67;;
13218;SDS011;6674;49.152;11.918;2024-02-14T06:05:10;9.40;;;8.27;;
13218;SDS011;6674;49.152;11.918;2024-02-14T06:07:37;9.43;;;8.43;;
13218;SDS011;6674;49.152;11.918;2024-02-14T06:10:04;10.60;;;9.27;;
13218;SDS011;6674;49.152;11.918;2024-02-14T06:12:31;10.47;;;9.30;;
13218;SDS011;6674;49.152;11.918;2024-02-14T06:14:58;9.27;;;8.47;;
13218;SDS011;6674;49.152;11.918;2024-02-14T06:17:24;10.00;;;8.77;;
13218;SDS011;6674;49.152;11.918;2024-02-14T06:19:51;10.63;;;8.97;;
13218;SDS011;6674;49.152;11.918;2024-02-14T06:22:17;8.97;;;8.10;;
13218;SDS011;6674;49.152;11.918;2024-02-14T06:24:45;8.40;;;7.60;;
13218;SDS011;6674;49.152;11.918;2024-02-14T06:27:13;10.10;;;8.20;;
13218;SDS011;6674;49.152;11.918;2024-02-14T06:29:41;11.50;;;10.00;;
13218;SDS011;6674;49.152;11.918;2024-02-14T06:32:07;8.90;;;8.07;;
13218;SDS011;6674;49.152;11.918;2024-02-14T06:34:34;13.17;;;9.40;;
13218;SDS011;6674;49.152;11.918;2024-02-14T06:37:00;9.80;;;8.80;;
13218;SDS011;6674;49.152;11.918;2024-02-14T06:39:27;10.67;;;9.07;;
13218;SDS011;6674;49.152;11.918;2024-02-14T06:41:54;10.00;;;9.00;;
13218;SDS011;6674;49.152;11.918;2024-02-14T06:44:21;9.53;;;8.53;;
13218;SDS011;6674;49.152;11.918;2024-02-14T06:46:47;8.53;;;7.70;;
13218;SDS011;6674;49.152;11.918;2024-02-14T06:49:13;10.10;;;8.00;;
13218;SDS011;6674;49.152;11.918;2024-02-14T06:51:41;10.53;;;9.53;;
13218;SDS011;6674;49.152;11.918;2024-02-14T06:54:07;9.23;;;8.23;;
13218;SDS011;6674;49.152;11.918;2024-02-14T06:56:34;9.73;;;7.93;;
13218;SDS011;6674;49.152;11.918;2024-02-14T06:59:01;9.87;;;7.60;;
13218;SDS011;6674;49.152;11.918;2024-02-14T07:01:28;8.40;;;7.50;;
13218;SDS011;6674;49.152;11.918;2024-02-14T07:03:55;7.97;;;6.93;;
13218;SDS011;6674;49.152;11.918;2024-02-14T07:06:21;9.40;;;8.23;;
13218;SDS011;6674;49.152;11.918;2024-02-14T07:08:48;7.87;;;7.17;;
13218;SDS011;6674;49.152;11.918;2024-02-14T07:11:14;7.67;;;6.97;;
13218;SDS011;6674;49.152;11.918;2024-02-14T07:13:41;8.00;;;7.27;;
13218;SDS011;6674;49.152;11.918;2024-02-14T07:16:09;9.40;;;6.93;;
13218;SDS011;6674;49.152;11.918;2024-02-14T07:18:36;8.60;;;7.80;;
13218;SDS011;6674;49.152;11.918;2024-02-14T07:21:02;8.17;;;7.10;;
13218;SDS011;6674;49.152;11.918;2024-02-14T07:23:30;9.20;;;7.83;;
13218;SDS011;6674;49.152;11.918;2024-02-14T07:25:57;8.33;;;7.53;;
13218;SDS011;6674;49.152;11.918;2024-02-14T07:28:23;7.33;;;6.70;;
13218;SDS011;6674;49.152;11.918;2024-02-14T07:30:49;8.20;;;7.30;;
13218;SDS011;6674;49.152;11.918;2024-02-14T07:33:17;9.43;;;7.77;;
13218;SDS011;6674;49.152;11.918;2024-02-14T07:35:44;8.03;;;7.17;;
13218;SDS011;6674;49.152;11.918;2024-02-14T07:38:12;8.40;;;7.50;;
13218;SDS011;6674;49.152;11.918;2024-02-14T07:40:38;8.50;;;7.70;;
13218;SDS011;6674;49.152;11.918;2024-02-14T07:43:04;7.77;;;6.30;;
13218;SDS011;6674;49.152;11.918;2024-02-14T07:45:32;8.40;;;6.70;;
13218;SDS011;6674;49.152;11.918;2024-02-14T07:47:58;7.33;;;6.63;;
13218;SDS011;6674;49.152;11.918;2024-02-14T07:50:26;8.00;;;6.67;;
13218;SDS011;6674;49.152;11.918;2024-02-14T07:52:53;7.07;;;6.37;;
13218;SDS011;6674;49.152;11.918;2024-02-14T07:55:20;8.37;;;6.57;;
13218;SDS011;6674;49.152;11.918;2024-02-14T07:57:47;7.80;;;6.67;;
13218;SDS011;6674;49.152;11.918;2024-02-14T08:00:13;8.43;;;7.43;;
13218;SDS011;6674;49.152;11.918;2024-02-14T08:02:47;6.50;;;5.90;;
13218;SDS011;6674;49.152;11.918;2024-02-14T08:05:14;7.67;;;7.00;;
13218;SDS011;6674;49.152;11.918;2024-02-14T08:07:41;8.87;;;7.27;;
13218;SDS011;6674;49.152;11.918;2024-02-14T08:10:09;7.67;;;6.83;;
13218;SDS011;6674;49.152;11.918;2024-02-14T08:12:35;6.73;;;6.03;;
13218;SDS011;6674;49.152;11.918;2024-02-14T08:15:02;6.93;;;5.70;;
13218;SDS011;6674;49.152;11.918;2024-02-14T08:17:31;8.97;;;8.07;;
13218;SDS011;6674;49.152;11.918;2024-02-14T08:19:59;8.93;;;7.73;;
13218;SDS011;6674;49.152;11.918;2024-02-14T08:22:26;11.63;;;9.30;;
13218;SDS011;6674;49.152;11.918;2024-02-14T08:24:54;8.73;;;7.00;;
13218;SDS011;6674;49.152;11.918;2024-02-14T08:27:21;7.63;;;6.83;;
13218;SDS011;6674;49.152;11.918;2024-02-14T08:29:48;7.43;;;6.63;;
13218;SDS011;6674;49.152;11.918;2024-02-14T08:32:14;6.60;;;6.00;;
13218;SDS011;6674;49.152;11.918;2024-02-14T08:34:42;6.63;;;5.60;;
13218;SDS011;6674;49.152;11.918;2024-02-14T08:37:08;8.57;;;6.80;;
13218;SDS011;6674;49.152;11.918;2024-02-14T08:39:35;8.57;;;7.37;;
13218;SDS011;6674;49.152;11.918;2024-02-14T08:42:03;9.30;;;7.67;;
13218;SDS011;6674;49.152;11.918;2024-02-14T08:44:32;8.77;;;7.90;;
13218;SDS011;6674;49.152;11.918;2024-02-14T08:46:59;8.40;;;7.60;;
13218;SDS011;6674;49.152;11.918;2024-02-14T08:49:25;11.87;;;9.97;;
13218;SDS011;6674;49.152;11.918;2024-02-14T08:51:52;12.87;;;9.50;;
13218;SDS011;6674;49.152;11.918;2024-02-14T08:54:19;8.37;;;7.57;;
13218;SDS011;6674;49.152;11.918;2024-02-14T08:56:46;10.43;;;8.63;;
13218;SDS011;6674;49.152;11.918;2024-02-14T08:59:15;7.63;;;6.83;;
13218;SDS011;6674;49.152;11.918;2024-02-14T09:01:41;9.03;;;7.67;;
13218;SDS011;6674;49.152;11.918;2024-02-14T09:04:08;7.70;;;6.70;;
13218;SDS011;6674;49.152;11.918;2024-02-14T09:06:34;9.90;;;8.33;;
13218;SDS011;6674;49.152;11.918;2024-02-14T09:09:00;8.63;;;7.80;;
13218;SDS011;6674;49.152;11.918;2024-02-14T09:11:27;8.63;;;7.10;;
13218;SDS011;6674;49.152;11.918;2024-02-14T09:13:54;8.43;;;6.97;;
13218;SDS011;6674;49.152;11.918;2024-02-14T09:16:28;7.67;;;6.53;;
13218;SDS011;6674;49.152;11.918;2024-02-14T09:18:54;7.63;;;6.53;;
13218;SDS011;6674;49.152;11.918;2024-02-14T09:21:21;11.27;;;7.80;;
13218;SDS011;6674;49.152;11.918;2024-02-14T09:23:48;8.80;;;6.43;;
13218;SDS011;6674;49.152;11.918;2024-02-14T09:26:14;9.10;;;7.23;;
13218;SDS011;6674;49.152;11.918;2024-02-14T09:28:42;7.67;;;6.87;;
13218;SDS011;6674;49.152;11.918;2024-02-14T09:31:08;7.43;;;6.67;;
13218;SDS011;6674;49.152;11.918;2024-02-14T09:33:37;8.67;;;7.43;;
13218;SDS011;6674;49.152;11.918;2024-02-14T09:36:05;7.37;;;6.50;;
13218;SDS011;6674;49.152;11.918;2024-02-14T09:38:31;8.00;;;6.93;;
13218;SDS011;6674;49.152;11.918;2024-02-14T09:41:05;6.90;;;6.20;;
13218;SDS011;6674;49.152;11.918;2024-02-14T09:43:35;7.23;;;6.53;;
13218;SDS011;6674;49.152;11.918;2024-02-14T09:46:01;6.90;;;6.30;;
13218;SDS011;6674;49.152;11.918;2024-02-14T09:48:29;6.53;;;5.93;;
13218;SDS011;6674;49.152;11.918;2024-02-14T09:50:57;6.83;;;6.07;;
13218;SDS011;6674;49.152;11.918;2024-02-14T09:53:23;7.33;;;6.37;;
13218;SDS011;6674;49.152;11.918;2024-02-14T09:55:50;6.40;;;5.80;;
13218;SDS011;6674;49.152;11.918;2024-02-14T09:58:17;6.23;;;5.63;;
13218;SDS011;6674;49.152;11.918;2024-02-14T10:00:44;6.73;;;5.70;;
13218;SDS011;6674;49.152;11.918;2024-02-14T10:03:11;6.07;;;5.30;;
13218;SDS011;6674;49.152;11.918;2024-02-14T10:05:37;6.13;;;5.10;;
13218;SDS011;6674;49.152;11.918;2024-02-14T10:08:05;5.23;;;4.50;;
13218;SDS011;6674;49.152;11.918;2024-02-14T10:10:35;5.17;;;4.67;;
13218;SDS011;6674;49.152;11.918;2024-02-14T10:13:03;5.80;;;5.30;;
13218;SDS011;6674;49.152;11.918;2024-02-14T10:15:30;5.23;;;4.80;;
13218;SDS011;6674;49.152;11.918;2024-02-14T10:17:57;6.00;;;5.40;;
13218;SDS011;6674;49.152;11.918;2024-02-14T10:20:23;5.80;;;5.20;;
13218;SDS011;6674;49.152;11.918;2024-02-14T10:22:51;6.83;;;5.00;;
13218;SDS011;6674;49.152;11.918;2024-02-14T10:25:19;5.70;;;5.17;;
13218;SDS011;6674;49.152;11.918;2024-02-14T10:27:46;5.43;;;4.90;;
13218;SDS011;6674;49.152;11.918;2024-02-14T10:30:13;6.43;;;4.83;;
13218;SDS011;6674;49.152;11.918;2024-02-14T10:32:40;5.10;;;4.60;;
13218;SDS011;6674;49.152;11.918;2024-02-14T10:35:12;5.80;;;5.20;;
13218;SDS011;6674;49.152;11.918;2024-02-14T10:37:40;5.20;;;4.70;;
13218;SDS011;6674;49.152;11.918;2024-02-14T10:40:07;5.20;;;4.40;;
13218;SDS011;6674;49.152;11.918;2024-02-14T10:42:35;5.67;;;4.17;;
13218;SDS011;6674;49.152;11.918;2024-02-14T10:45:02;5.17;;;4.33;;
13218;SDS011;6674;49.152;11.918;2024-02-14T10:47:29;4.83;;;4.33;;
13218;SDS011;6674;49.152;11.918;2024-02-14T10:49:56;4.90;;;3.87;;
13218;SDS011;6674;49.152;11.918;2024-02-14T10:52:23;5.67;;;4.20;;
13218;SDS011;6674;49.152;11.918;2024-02-14T10:54:51;4.67;;;4.27;;
13218;SDS011;6674;49.152;11.918;2024-02-14T10:57:18;5.80;;;4.67;;
13218;SDS011;6674;49.152;11.918;2024-02-14T10:59:47;5.87;;;4.73;;
13218;SDS011;6674;49.152;11.918;2024-02-14T11:02:14;7.00;;;5.40;;
13218;SDS011;6674;49.152;11.918;2024-02-14T11:04:41;5.47;;;4.73;;
13218;SDS011;6674;49.152;11.918;2024-02-14T11:07:09;5.43;;;4.90;;
13218;SDS011;6674;49.152;11.918;2024-02-14T11:09:37;5.60;;;5.00;;
13218;SDS011;6674;49.152;11.918;2024-02-14T11:12:06;5.10;;;4.60;;
13218;SDS011;6674;49.152;11.918;2024-02-14T11:14:33;6.33;;;5.10;;
13218;SDS011;6674;49.152;11.918;2024-02-14T11:17:02;5.97;;;5.27;;
13218;SDS011;6674;49.152;11.918;2024-02-14T11:19:31;5.67;;;4.63;;
13218;SDS011;6674;49.152;11.918;2024-02-14T11:22:09;5.37;;;4.40;;
13218;SDS011;6674;49.152;11.918;2024-02-14T11:24:36;5.17;;;4.33;;
13218;SDS011;6674;49.152;11.918;2024-02-14T11:27:02;5.20;;;4.43;;
13218;SDS011;6674;49.152;11.918;2024-02-14T11:29:29;5.50;;;4.40;;
13218;SDS011;6674;49.152;11.918;2024-02-14T11:31:59;6.27;;;4.80;;
13218;SDS011;6674;49.152;11.918;2024-02-14T11:34:27;5.13;;;4.63;;
13218;SDS011;6674;49.152;11.918;2024-02-14T11:36:53;5.10;;;4.60;;
13218;SDS011;6674;49.152;11.918;2024-02-14T11:39:20;5.27;;;4.77;;
13218;SDS011;6674;49.152;11.918;2024-02-14T11:41:46;5.87;;;4.43;;
13218;SDS011;6674;49.152;11.918;2024-02-14T11:44:13;5.27;;;4.77;;
13218;SDS011;6674;49.152;11.918;2024-02-14T11:46:39;5.30;;;4.80;;
13218;SDS011;6674;49.152;11.918;2024-02-14T11:49:07;4.47;;;4.07;;
13218;SDS011;6674;49.152;11.918;2024-02-14T11:51:35;6.77;;;4.63;;
13218;SDS011;6674;49.152;11.918;2024-02-14T11:54:02;6.20;;;4.07;;
13218;SDS011;6674;49.152;11.918;2024-02-14T11:56:31;4.30;;;3.70;;
13218;SDS011;6674;49.152;11.918;2024-02-14T11:58:59;5.17;;;4.53;;
13218;SDS011;6674;49.152;11.918;2024-02-14T12:01:26;6.37;;;4.43;;
13218;SDS011;6674;49.152;11.918;2024-02-14T12:03:52;5.73;;;4.43;;
13218;SDS011;6674;49.152;11.918;2024-02-14T12:06:18;4.93;;;4.47;;
13218;SDS011;6674;49.152;11.918;2024-02-14T12:08:47;6.27;;;4.50;;
13218;SDS011;6674;49.152;11.918;2024-02-14T12:11:14;5.17;;;4.63;;
13218;SDS011;6674;49.152;11.918;2024-02-14T12:13:40;5.73;;;4.60;;
13218;SDS011;6674;49.152;11.918;2024-02-14T12:16:08;5.83;;;4.50;;
13218;SDS011;6674;49.152;11.918;2024-02-14T12:18:36;4.77;;;4.37;;
13218;SDS011;6674;49.152;11.918;2024-02-14T12:21:05;5.17;;;4.67;;
13218;SDS011;6674;49.152;11.918;2024-02-14T12:23:33;4.90;;;4.40;;
13218;SDS011;6674;49.152;11.918;2024-02-14T12:26:02;4.87;;;4.30;;
13218;SDS011;6674;49.152;11.918;2024-02-14T12:28:29;7.23;;;4.90;;
13218;SDS011;6674;49.152;11.918;2024-02-14T12:30:58;6.87;;;4.87;;
13218;SDS011;6674;49.152;11.918;2024-02-14T12:33:24;4.90;;;4.40;;
13218;SDS011;6674;49.152;11.918;2024-02-14T12:35:52;5.97;;;4.30;;
13218;SDS011;6674;49.152;11.918;2024-02-14T12:38:20;5.93;;;3.97;;
13218;SDS011;6674;49.152;11.918;2024-02-14T12:40:48;5.83;;;4.30;;
13218;SDS011;6674;49.152;11.918;2024-02-14T12:43:16;4.27;;;3.87;;
13218;SDS011;6674;49.152;11.918;2024-02-14T12:45:43;4.77;;;4.27;;
13218;SDS011;6674;49.152;11.918;2024-02-14T12:48:10;6.60;;;4.57;;
13218;SDS011;6674;49.152;11.918;2024-02-14T12:50:37;6.63;;;4.30;;
13218;SDS011;6674;49.152;11.918;2024-02-14T12:53:04;4.03;;;3.73;;
13218;SDS011;6674;49.152;11.918;2024-02-14T12:55:30;5.70;;;4.50;;
13218;SDS011;6674;49.152;11.918;2024-02-14T12:57:57;5.63;;;4.63;;
13218;SDS011;6674;49.152;11.918;2024-02-14T13:00:25;4.53;;;3.90;;
13218;SDS011;6674;49.152;11.918;2024-02-14T13:02:51;5.50;;;4.47;;
13218;SDS011;6674;49.152;11.918;2024-02-14T13:05:18;4.73;;;4.10;;
13218;SDS011;6674;49.152;11.918;2024-02-14T13:07:45;5.30;;;4.17;;
13218;SDS011;6674;49.152;11.918;2024-02-14T13:10:12;5.27;;;4.30;;
13218;SDS011;6674;49.152;11.918;2024-02-14T13:12:39;4.10;;;3.80;;
13218;SDS011;6674;49.152;11.918;2024-02-14T13:15:08;4.93;;;4.13;;
13218;SDS011;6674;49.152;11.918;2024-02-14T13:17:36;4.63;;;3.97;;
13218;SDS011;6674;49.152;11.918;2024-02-14T13:20:03;4.07;;;3.50;;
13218;SDS011;6674;49.152;11.918;2024-02-14T13:22:30;4.40;;;4.00;;
13218;SDS011;6674;49.152;11.918;2024-02-14T13:24:58;4.43;;;3.67;;
13218;SDS011;6674;49.152;11.918;2024-02-14T13:27:25;3.87;;;3.57;;
13218;SDS011;6674;49.152;11.918;2024-02-14T13:29:52;5.07;;;4.13;;
13218;SDS011;6674;49.152;11.918;2024-02-14T13:32:18;3.73;;;3.27;;
13218;SDS011;6674;49.152;11.918;2024-02-14T13:34:46;4.77;;;3.77;;
13218;SDS011;6674;49.152;11.918;2024-02-14T13:37:13;3.63;;;3.33;;
13218;SDS011;6674;49.152;11.918;2024-02-14T13:39:40;4.93;;;3.30;;
13218;SDS011;6674;49.152;11.918;2024-02-14T13:42:08;4.67;;;3.57;;
13218;SDS011;6674;49.152;11.918;2024-02-14T13:44:34;4.03;;;3.30;;
13218;SDS011;6674;49.152;11.918;2024-02-14T13:47:01;4.63;;;3.67;;
13218;SDS011;6674;49.152;11.918;2024-02-14T13:49:28;4.70;;;3.27;;
13218;SDS011;6674;49.152;11.918;2024-02-14T13:51:56;5.20;;;3.33;;
13218;SDS011;6674;49.152;11.918;2024-02-14T13:54:23;4.10;;;3.50;;
13218;SDS011;6674;49.152;11.918;2024-02-14T13:56:50;3.60;;;3.10;;
13218;SDS011;6674;49.152;11.918;2024-02-14T13:59:17;6.10;;;3.03;;
13218;SDS011;6674;49.152;11.918;2024-02-14T14:01:44;3.93;;;3.33;;
13218;SDS011;6674;49.152;11.918;2024-02-14T14:04:11;3.77;;;3.40;;
13218;SDS011;6674;49.152;11.918;2024-02-14T14:06:37;6.03;;;3.87;;
13218;SDS011;6674;49.152;11.918;2024-02-14T14:09:05;4.67;;;3.60;;
13218;SDS011;6674;49.152;11.918;2024-02-14T14:11:40;4.60;;;4.00;;
13218;SDS011;6674;49.152;11.918;2024-02-14T14:14:07;4.43;;;3.50;;
13218;SDS011;6674;49.152;11.918;2024-02-14T14:16:36;4.00;;;3.23;;
13218;SDS011;6674;49.152;11.918;2024-02-14T14:19:04;4.53;;;4.10;;
13218;SDS011;6674;49.152;11.918;2024-02-14T14:21:31;4.07;;;3.60;;
13218;SDS011;6674;49.152;11.918;2024-02-14T14:23:58;4.30;;;3.63;;
13218;SDS011;6674;49.152;11.918;2024-02-14T14:26:25;4.00;;;3.60;;
13218;SDS011;6674;49.152;11.918;2024-02-14T14:28:53;4.13;;;3.80;;
13218;SDS011;6674;49.152;11.918;2024-02-14T14:31:20;4.00;;;3.43;;
13218;SDS011;6674;49.152;11.918;2024-02-14T14:33:46;3.63;;;3.30;;
13218;SDS011;6674;49.152;11.918;2024-02-14T14:36:20;3.43;;;3.13;;
13218;SDS011;6674;49.152;11.918;2024-02-14T14:38:47;3.70;;;3.40;;
13218;SDS011;6674;49.152;11.918;2024-02-14T14:41:13;4.70;;;3.70;;
13218;SDS011;6674;49.152;11.918;2024-02-14T14:43:42;4.43;;;3.67;;